Estación Meteorológica Peña el Pijo (Robertgarden) [ 07/23/19 13:43:22 CEST ]

Fecha Hora Presion(HPa) Temp (°C) Humedad % Rocio (°C) Viento ( m/s) Direccion Lluvia 1Hora(mm) Lluvia 24H(mm) LLuvia Total(mm)
2019-May-10 01:01:46 1008.000 13.2 80 9.8         318.05
2019-May-10 02:02:03 1007.800 14.1 81 10.9         318.05
2019-May-10 03:03:12 1007.700 13.6 81 10.4         318.05
2019-May-10 04:01:47 1007.500 12.7 81 9.5         318.05
2019-May-10 05:01:43 1007.300 12.3 83 9.5         318.05
2019-May-10 06:01:50 1007.300 11.8 84 9.2         318.05
2019-May-10 07:01:48 1007.400 11.6 86 9.3         318.05
2019-May-10 08:01:51 1007.700 12.9 88 10.9         318.05
2019-May-10 09:01:44 1007.700 17.4 78 13.5         318.05
2019-May-10 10:02:13 1007.800 21.9 54 12.1         318.05
2019-May-10 11:01:42 1007.900 25.8 44 12.6         318.05
2019-May-10 12:01:59 1007.900 28.1 34 10.6         318.05
2019-May-10 13:01:47 1007.700 28.9 29 9.0         318.05
2019-May-10 14:01:44 1007.700 28.4 29 8.6         318.05
2019-May-10 15:02:06 1007.400 29.1 27 8.0         318.05
2019-May-10 16:01:58 1007.400 30.1 26 8.3 1.4 NNW     318.05
2019-May-10 17:01:50 1007.400 29.4 27 8.3         318.05
2019-May-10 18:01:48 1007.300 28.1 26 6.6         318.05
2019-May-10 19:01:42 1007.400 26.6 29 7.1 1.0 N     318.05
2019-May-10 20:01:36 1007.600 24.1 30 5.5         318.05
2019-May-10 21:01:42 1008.600 21.1 35 4.9         318.05
2019-May-10 22:01:37 1009.500 16.6 49 5.8         318.05
2019-May-10 23:01:48 1010.500 14.3 58 6.1         318.05

Temperatura Máxima:30°    Temperatura Mínima:11°
Presión Máxima:1010.500 Hpa    Presión Mínima:1007.300 Hpa


Volver